sensor_id;sensor_type;location;lat;lon;timestamp;P1;durP1;ratioP1;P2;durP2;ratioP2
21505;SDS011;10914;48.886;9.394;2024-01-11T00:00:45;79.95;;;60.65;;
21505;SDS011;10914;48.886;9.394;2024-01-11T00:03:11;84.80;;;59.67;;
21505;SDS011;10914;48.886;9.394;2024-01-11T00:05:36;82.25;;;58.03;;
21505;SDS011;10914;48.886;9.394;2024-01-11T00:08:01;76.60;;;60.03;;
21505;SDS011;10914;48.886;9.394;2024-01-11T00:10:27;78.07;;;58.75;;
21505;SDS011;10914;48.886;9.394;2024-01-11T00:12:52;76.63;;;57.70;;
21505;SDS011;10914;48.886;9.394;2024-01-11T00:15:17;77.22;;;57.68;;
21505;SDS011;10914;48.886;9.394;2024-01-11T00:17:42;73.78;;;58.08;;
21505;SDS011;10914;48.886;9.394;2024-01-11T00:20:08;85.48;;;61.16;;
21505;SDS011;10914;48.886;9.394;2024-01-11T00:22:34;86.78;;;61.53;;
21505;SDS011;10914;48.886;9.394;2024-01-11T00:24:59;80.75;;;59.70;;
21505;SDS011;10914;48.886;9.394;2024-01-11T00:27:24;82.52;;;59.32;;
21505;SDS011;10914;48.886;9.394;2024-01-11T00:29:49;79.60;;;58.40;;
21505;SDS011;10914;48.886;9.394;2024-01-11T00:32:14;82.35;;;59.53;;
21505;SDS011;10914;48.886;9.394;2024-01-11T00:34:39;77.47;;;57.83;;
21505;SDS011;10914;48.886;9.394;2024-01-11T00:37:05;84.43;;;59.00;;
21505;SDS011;10914;48.886;9.394;2024-01-11T00:39:30;80.15;;;59.03;;
21505;SDS011;10914;48.886;9.394;2024-01-11T00:41:55;88.20;;;62.03;;
21505;SDS011;10914;48.886;9.394;2024-01-11T00:44:20;77.88;;;58.65;;
21505;SDS011;10914;48.886;9.394;2024-01-11T00:46:45;77.18;;;56.78;;
21505;SDS011;10914;48.886;9.394;2024-01-11T00:49:11;84.35;;;58.42;;
21505;SDS011;10914;48.886;9.394;2024-01-11T00:51:36;83.43;;;59.80;;
21505;SDS011;10914;48.886;9.394;2024-01-11T00:54:01;81.20;;;57.52;;
21505;SDS011;10914;48.886;9.394;2024-01-11T00:56:26;82.10;;;59.13;;
21505;SDS011;10914;48.886;9.394;2024-01-11T00:58:52;83.25;;;57.17;;
21505;SDS011;10914;48.886;9.394;2024-01-11T01:01:17;84.95;;;61.38;;
21505;SDS011;10914;48.886;9.394;2024-01-11T01:03:42;82.82;;;57.78;;
21505;SDS011;10914;48.886;9.394;2024-01-11T01:06:08;75.32;;;56.10;;
21505;SDS011;10914;48.886;9.394;2024-01-11T01:08:33;75.40;;;56.15;;
21505;SDS011;10914;48.886;9.394;2024-01-11T01:10:58;76.65;;;56.25;;
21505;SDS011;10914;48.886;9.394;2024-01-11T01:13:23;82.88;;;57.80;;
21505;SDS011;10914;48.886;9.394;2024-01-11T01:15:48;77.07;;;56.90;;
21505;SDS011;10914;48.886;9.394;2024-01-11T01:18:13;83.80;;;58.10;;
21505;SDS011;10914;48.886;9.394;2024-01-11T01:20:39;77.28;;;55.75;;
21505;SDS011;10914;48.886;9.394;2024-01-11T01:23:04;88.70;;;59.78;;
21505;SDS011;10914;48.886;9.394;2024-01-11T01:25:29;74.72;;;56.10;;
21505;SDS011;10914;48.886;9.394;2024-01-11T01:27:54;78.22;;;55.42;;
21505;SDS011;10914;48.886;9.394;2024-01-11T01:30:20;72.85;;;55.63;;
21505;SDS011;10914;48.886;9.394;2024-01-11T01:32:45;86.70;;;59.30;;
21505;SDS011;10914;48.886;9.394;2024-01-11T01:35:10;79.95;;;56.80;;
21505;SDS011;10914;48.886;9.394;2024-01-11T01:37:35;77.60;;;58.08;;
21505;SDS011;10914;48.886;9.394;2024-01-11T01:40:00;76.63;;;58.13;;
21505;SDS011;10914;48.886;9.394;2024-01-11T01:42:26;81.57;;;57.53;;
21505;SDS011;10914;48.886;9.394;2024-01-11T01:44:51;74.02;;;57.02;;
21505;SDS011;10914;48.886;9.394;2024-01-11T01:47:16;80.28;;;57.85;;
21505;SDS011;10914;48.886;9.394;2024-01-11T01:49:42;75.82;;;57.00;;
21505;SDS011;10914;48.886;9.394;2024-01-11T01:52:07;80.53;;;58.72;;
21505;SDS011;10914;48.886;9.394;2024-01-11T01:54:33;82.97;;;59.03;;
21505;SDS011;10914;48.886;9.394;2024-01-11T01:56:58;81.32;;;56.80;;
21505;SDS011;10914;48.886;9.394;2024-01-11T01:59:24;74.20;;;55.20;;
21505;SDS011;10914;48.886;9.394;2024-01-11T02:01:50;81.07;;;57.90;;
21505;SDS011;10914;48.886;9.394;2024-01-11T02:04:15;73.43;;;56.55;;
21505;SDS011;10914;48.886;9.394;2024-01-11T02:06:41;79.63;;;57.67;;
21505;SDS011;10914;48.886;9.394;2024-01-11T02:09:08;86.38;;;60.67;;
21505;SDS011;10914;48.886;9.394;2024-01-11T02:11:34;76.07;;;57.50;;
21505;SDS011;10914;48.886;9.394;2024-01-11T02:13:59;77.50;;;56.92;;
21505;SDS011;10914;48.886;9.394;2024-01-11T02:16:24;77.57;;;58.40;;
21505;SDS011;10914;48.886;9.394;2024-01-11T02:18:49;81.76;;;57.62;;
21505;SDS011;10914;48.886;9.394;2024-01-11T02:21:15;82.85;;;59.20;;
21505;SDS011;10914;48.886;9.394;2024-01-11T02:23:52;80.03;;;56.85;;
21505;SDS011;10914;48.886;9.394;2024-01-11T02:26:17;75.68;;;56.55;;
21505;SDS011;10914;48.886;9.394;2024-01-11T02:28:43;76.95;;;58.40;;
21505;SDS011;10914;48.886;9.394;2024-01-11T02:31:08;79.88;;;56.88;;
21505;SDS011;10914;48.886;9.394;2024-01-11T02:33:34;75.82;;;56.13;;
21505;SDS011;10914;48.886;9.394;2024-01-11T02:35:59;78.20;;;55.78;;
21505;SDS011;10914;48.886;9.394;2024-01-11T02:38:24;75.75;;;56.03;;
21505;SDS011;10914;48.886;9.394;2024-01-11T02:40:49;76.25;;;58.28;;
21505;SDS011;10914;48.886;9.394;2024-01-11T02:43:14;82.97;;;57.55;;
21505;SDS011;10914;48.886;9.394;2024-01-11T02:45:40;74.97;;;56.38;;
21505;SDS011;10914;48.886;9.394;2024-01-11T02:48:05;75.30;;;56.70;;
21505;SDS011;10914;48.886;9.394;2024-01-11T02:50:30;77.25;;;56.70;;
21505;SDS011;10914;48.886;9.394;2024-01-11T02:52:55;79.44;;;57.12;;
21505;SDS011;10914;48.886;9.394;2024-01-11T02:55:20;77.02;;;57.00;;
21505;SDS011;10914;48.886;9.394;2024-01-11T02:57:46;75.70;;;56.78;;
21505;SDS011;10914;48.886;9.394;2024-01-11T03:00:11;73.40;;;55.04;;
21505;SDS011;10914;48.886;9.394;2024-01-11T03:02:37;75.95;;;56.30;;
21505;SDS011;10914;48.886;9.394;2024-01-11T03:05:03;82.70;;;58.70;;
21505;SDS011;10914;48.886;9.394;2024-01-11T03:07:28;82.57;;;57.53;;
21505;SDS011;10914;48.886;9.394;2024-01-11T03:09:55;77.10;;;56.10;;
21505;SDS011;10914;48.886;9.394;2024-01-11T03:12:20;84.08;;;57.26;;
21505;SDS011;10914;48.886;9.394;2024-01-11T03:14:45;77.47;;;55.17;;
21505;SDS011;10914;48.886;9.394;2024-01-11T03:17:10;79.58;;;56.24;;
21505;SDS011;10914;48.886;9.394;2024-01-11T03:19:39;78.72;;;57.50;;
21505;SDS011;10914;48.886;9.394;2024-01-11T03:22:04;77.85;;;56.78;;
21505;SDS011;10914;48.886;9.394;2024-01-11T03:24:31;81.03;;;58.67;;
21505;SDS011;10914;48.886;9.394;2024-01-11T03:26:56;79.80;;;56.15;;
21505;SDS011;10914;48.886;9.394;2024-01-11T03:29:22;80.18;;;57.53;;
21505;SDS011;10914;48.886;9.394;2024-01-11T03:31:47;75.40;;;55.60;;
21505;SDS011;10914;48.886;9.394;2024-01-11T03:34:12;78.90;;;57.50;;
21505;SDS011;10914;48.886;9.394;2024-01-11T03:36:37;85.45;;;56.95;;
21505;SDS011;10914;48.886;9.394;2024-01-11T03:39:03;88.03;;;60.20;;
21505;SDS011;10914;48.886;9.394;2024-01-11T03:41:28;77.97;;;55.97;;
21505;SDS011;10914;48.886;9.394;2024-01-11T03:43:53;76.38;;;56.95;;
21505;SDS011;10914;48.886;9.394;2024-01-11T03:46:18;76.56;;;57.30;;
21505;SDS011;10914;48.886;9.394;2024-01-11T03:48:44;81.95;;;59.85;;
21505;SDS011;10914;48.886;9.394;2024-01-11T03:51:09;74.90;;;55.78;;
21505;SDS011;10914;48.886;9.394;2024-01-11T03:53:35;81.72;;;59.25;;
21505;SDS011;10914;48.886;9.394;2024-01-11T03:56:00;77.25;;;56.78;;
21505;SDS011;10914;48.886;9.394;2024-01-11T03:58:26;85.68;;;57.85;;
21505;SDS011;10914;48.886;9.394;2024-01-11T04:00:51;80.70;;;56.70;;
21505;SDS011;10914;48.886;9.394;2024-01-11T04:03:16;81.97;;;57.20;;
21505;SDS011;10914;48.886;9.394;2024-01-11T04:05:42;74.70;;;56.42;;
21505;SDS011;10914;48.886;9.394;2024-01-11T04:08:07;81.57;;;58.58;;
21505;SDS011;10914;48.886;9.394;2024-01-11T04:10:32;78.60;;;56.13;;
21505;SDS011;10914;48.886;9.394;2024-01-11T04:12:57;80.85;;;56.63;;
21505;SDS011;10914;48.886;9.394;2024-01-11T04:15:23;77.60;;;55.30;;
21505;SDS011;10914;48.886;9.394;2024-01-11T04:17:48;89.00;;;60.80;;
21505;SDS011;10914;48.886;9.394;2024-01-11T04:20:13;77.12;;;57.78;;
21505;SDS011;10914;48.886;9.394;2024-01-11T04:22:38;85.32;;;59.60;;
21505;SDS011;10914;48.886;9.394;2024-01-11T04:25:03;84.63;;;60.13;;
21505;SDS011;10914;48.886;9.394;2024-01-11T04:27:29;88.63;;;61.33;;
21505;SDS011;10914;48.886;9.394;2024-01-11T04:29:54;85.90;;;57.38;;
21505;SDS011;10914;48.886;9.394;2024-01-11T04:32:19;92.90;;;62.60;;
21505;SDS011;10914;48.886;9.394;2024-01-11T04:34:44;77.63;;;57.92;;
21505;SDS011;10914;48.886;9.394;2024-01-11T04:37:09;82.72;;;58.92;;
21505;SDS011;10914;48.886;9.394;2024-01-11T04:39:34;80.45;;;58.35;;
21505;SDS011;10914;48.886;9.394;2024-01-11T04:42:00;78.28;;;58.17;;
21505;SDS011;10914;48.886;9.394;2024-01-11T04:44:26;87.13;;;59.38;;
21505;SDS011;10914;48.886;9.394;2024-01-11T04:46:51;86.35;;;61.20;;
21505;SDS011;10914;48.886;9.394;2024-01-11T04:49:16;82.84;;;61.02;;
21505;SDS011;10914;48.886;9.394;2024-01-11T04:51:41;80.70;;;58.33;;
21505;SDS011;10914;48.886;9.394;2024-01-11T04:54:06;80.40;;;58.65;;
21505;SDS011;10914;48.886;9.394;2024-01-11T04:56:31;86.00;;;56.80;;
21505;SDS011;10914;48.886;9.394;2024-01-11T04:58:57;90.32;;;59.97;;
21505;SDS011;10914;48.886;9.394;2024-01-11T05:01:22;77.50;;;58.38;;
21505;SDS011;10914;48.886;9.394;2024-01-11T05:03:47;79.18;;;60.72;;
21505;SDS011;10914;48.886;9.394;2024-01-11T05:06:16;81.07;;;57.78;;
21505;SDS011;10914;48.886;9.394;2024-01-11T05:08:41;93.03;;;61.15;;
21505;SDS011;10914;48.886;9.394;2024-01-11T05:11:06;80.20;;;59.13;;
21505;SDS011;10914;48.886;9.394;2024-01-11T05:13:31;86.60;;;61.25;;
21505;SDS011;10914;48.886;9.394;2024-01-11T05:15:57;80.15;;;58.20;;
21505;SDS011;10914;48.886;9.394;2024-01-11T05:18:22;94.00;;;63.47;;
21505;SDS011;10914;48.886;9.394;2024-01-11T05:20:48;88.93;;;62.70;;
21505;SDS011;10914;48.886;9.394;2024-01-11T05:23:13;96.47;;;62.53;;
21505;SDS011;10914;48.886;9.394;2024-01-11T05:25:38;77.82;;;57.78;;
21505;SDS011;10914;48.886;9.394;2024-01-11T05:28:03;83.22;;;60.03;;
21505;SDS011;10914;48.886;9.394;2024-01-11T05:30:29;78.50;;;58.03;;
21505;SDS011;10914;48.886;9.394;2024-01-11T05:32:54;78.85;;;57.38;;
21505;SDS011;10914;48.886;9.394;2024-01-11T05:35:20;86.40;;;60.95;;
21505;SDS011;10914;48.886;9.394;2024-01-11T05:37:45;86.82;;;62.13;;
21505;SDS011;10914;48.886;9.394;2024-01-11T05:40:10;91.72;;;64.53;;
21505;SDS011;10914;48.886;9.394;2024-01-11T05:42:35;80.00;;;60.65;;
21505;SDS011;10914;48.886;9.394;2024-01-11T05:45:00;87.75;;;61.45;;
21505;SDS011;10914;48.886;9.394;2024-01-11T05:47:25;86.28;;;62.55;;
21505;SDS011;10914;48.886;9.394;2024-01-11T05:49:51;82.12;;;60.90;;
21505;SDS011;10914;48.886;9.394;2024-01-11T05:52:16;80.40;;;60.88;;
21505;SDS011;10914;48.886;9.394;2024-01-11T05:54:41;84.25;;;58.13;;
21505;SDS011;10914;48.886;9.394;2024-01-11T05:57:06;81.86;;;57.70;;
21505;SDS011;10914;48.886;9.394;2024-01-11T05:59:32;80.18;;;59.58;;
21505;SDS011;10914;48.886;9.394;2024-01-11T06:01:57;84.38;;;59.20;;
21505;SDS011;10914;48.886;9.394;2024-01-11T06:04:25;82.93;;;59.13;;
21505;SDS011;10914;48.886;9.394;2024-01-11T06:06:51;81.13;;;59.10;;
21505;SDS011;10914;48.886;9.394;2024-01-11T06:09:16;80.96;;;59.36;;
21505;SDS011;10914;48.886;9.394;2024-01-11T06:11:41;84.32;;;61.94;;
21505;SDS011;10914;48.886;9.394;2024-01-11T06:14:06;85.53;;;61.28;;
21505;SDS011;10914;48.886;9.394;2024-01-11T06:16:31;81.22;;;61.15;;
21505;SDS011;10914;48.886;9.394;2024-01-11T06:18:57;90.85;;;63.40;;
21505;SDS011;10914;48.886;9.394;2024-01-11T06:21:22;94.47;;;65.25;;
21505;SDS011;10914;48.886;9.394;2024-01-11T06:23:47;85.25;;;62.78;;
21505;SDS011;10914;48.886;9.394;2024-01-11T06:26:14;86.03;;;60.42;;
21505;SDS011;10914;48.886;9.394;2024-01-11T06:28:39;77.10;;;60.83;;
21505;SDS011;10914;48.886;9.394;2024-01-11T06:31:04;84.46;;;61.90;;
21505;SDS011;10914;48.886;9.394;2024-01-11T06:33:29;80.50;;;60.30;;
21505;SDS011;10914;48.886;9.394;2024-01-11T06:35:54;88.43;;;64.25;;
21505;SDS011;10914;48.886;9.394;2024-01-11T06:38:20;92.38;;;62.63;;
21505;SDS011;10914;48.886;9.394;2024-01-11T06:40:46;86.07;;;62.42;;
21505;SDS011;10914;48.886;9.394;2024-01-11T06:43:11;87.70;;;61.68;;
21505;SDS011;10914;48.886;9.394;2024-01-11T06:45:36;82.65;;;61.95;;
21505;SDS011;10914;48.886;9.394;2024-01-11T06:48:01;97.28;;;65.47;;
21505;SDS011;10914;48.886;9.394;2024-01-11T06:50:27;87.53;;;64.07;;
21505;SDS011;10914;48.886;9.394;2024-01-11T06:52:52;84.47;;;63.10;;
21505;SDS011;10914;48.886;9.394;2024-01-11T06:55:17;92.03;;;65.57;;
21505;SDS011;10914;48.886;9.394;2024-01-11T06:57:42;87.75;;;64.53;;
21505;SDS011;10914;48.886;9.394;2024-01-11T07:00:11;83.80;;;63.20;;
21505;SDS011;10914;48.886;9.394;2024-01-11T07:02:36;87.78;;;63.80;;
21505;SDS011;10914;48.886;9.394;2024-01-11T07:05:01;82.05;;;62.97;;
21505;SDS011;10914;48.886;9.394;2024-01-11T07:07:27;87.03;;;64.57;;
21505;SDS011;10914;48.886;9.394;2024-01-11T07:09:52;87.25;;;62.83;;
21505;SDS011;10914;48.886;9.394;2024-01-11T07:12:20;97.45;;;66.22;;
21505;SDS011;10914;48.886;9.394;2024-01-11T07:14:45;88.40;;;62.50;;
21505;SDS011;10914;48.886;9.394;2024-01-11T07:17:10;93.90;;;66.85;;
21505;SDS011;10914;48.886;9.394;2024-01-11T07:19:35;87.66;;;63.92;;
21505;SDS011;10914;48.886;9.394;2024-01-11T07:22:01;94.30;;;63.50;;
21505;SDS011;10914;48.886;9.394;2024-01-11T07:24:27;83.65;;;61.45;;
21505;SDS011;10914;48.886;9.394;2024-01-11T07:26:52;94.07;;;64.93;;
21505;SDS011;10914;48.886;9.394;2024-01-11T07:29:18;97.82;;;66.35;;
21505;SDS011;10914;48.886;9.394;2024-01-11T07:31:43;91.70;;;63.42;;
21505;SDS011;10914;48.886;9.394;2024-01-11T07:34:09;97.15;;;70.80;;
21505;SDS011;10914;48.886;9.394;2024-01-11T07:36:34;100.65;;;66.85;;
21505;SDS011;10914;48.886;9.394;2024-01-11T07:38:59;88.63;;;65.38;;
21505;SDS011;10914;48.886;9.394;2024-01-11T07:41:24;104.72;;;69.55;;
21505;SDS011;10914;48.886;9.394;2024-01-11T07:43:49;91.20;;;66.07;;
21505;SDS011;10914;48.886;9.394;2024-01-11T07:46:15;95.68;;;63.65;;
21505;SDS011;10914;48.886;9.394;2024-01-11T07:48:40;85.93;;;69.38;;
21505;SDS011;10914;48.886;9.394;2024-01-11T07:51:05;86.10;;;64.25;;
21505;SDS011;10914;48.886;9.394;2024-01-11T07:53:30;84.40;;;63.70;;
21505;SDS011;10914;48.886;9.394;2024-01-11T07:55:57;88.25;;;62.67;;
21505;SDS011;10914;48.886;9.394;2024-01-11T07:58:22;92.75;;;66.28;;
21505;SDS011;10914;48.886;9.394;2024-01-11T08:00:47;94.62;;;65.86;;
21505;SDS011;10914;48.886;9.394;2024-01-11T08:03:13;85.18;;;63.38;;
21505;SDS011;10914;48.886;9.394;2024-01-11T08:05:38;88.40;;;65.36;;
21505;SDS011;10914;48.886;9.394;2024-01-11T08:08:03;89.88;;;64.15;;
21505;SDS011;10914;48.886;9.394;2024-01-11T08:10:29;88.40;;;62.75;;
21505;SDS011;10914;48.886;9.394;2024-01-11T08:12:55;95.70;;;64.45;;
21505;SDS011;10914;48.886;9.394;2024-01-11T08:15:20;85.43;;;63.70;;
21505;SDS011;10914;48.886;9.394;2024-01-11T08:17:46;87.10;;;64.55;;
21505;SDS011;10914;48.886;9.394;2024-01-11T08:20:12;88.75;;;61.70;;
21505;SDS011;10914;48.886;9.394;2024-01-11T08:22:40;82.22;;;61.00;;
21505;SDS011;10914;48.886;9.394;2024-01-11T08:25:06;88.47;;;63.97;;
21505;SDS011;10914;48.886;9.394;2024-01-11T08:27:31;87.75;;;63.35;;
21505;SDS011;10914;48.886;9.394;2024-01-11T08:29:57;88.68;;;68.18;;
21505;SDS011;10914;48.886;9.394;2024-01-11T08:32:22;90.25;;;65.80;;
21505;SDS011;10914;48.886;9.394;2024-01-11T08:34:47;90.53;;;66.90;;
21505;SDS011;10914;48.886;9.394;2024-01-11T08:37:12;99.30;;;75.57;;
21505;SDS011;10914;48.886;9.394;2024-01-11T08:39:38;89.04;;;65.32;;
21505;SDS011;10914;48.886;9.394;2024-01-11T08:42:03;83.65;;;61.92;;
21505;SDS011;10914;48.886;9.394;2024-01-11T08:44:29;85.20;;;60.88;;
21505;SDS011;10914;48.886;9.394;2024-01-11T08:46:55;92.22;;;64.03;;
21505;SDS011;10914;48.886;9.394;2024-01-11T08:49:20;85.35;;;63.67;;
21505;SDS011;10914;48.886;9.394;2024-01-11T08:51:46;83.34;;;65.32;;
21505;SDS011;10914;48.886;9.394;2024-01-11T08:54:11;85.97;;;62.95;;
21505;SDS011;10914;48.886;9.394;2024-01-11T08:56:37;90.50;;;63.45;;
21505;SDS011;10914;48.886;9.394;2024-01-11T08:59:04;86.75;;;62.58;;
21505;SDS011;10914;48.886;9.394;2024-01-11T09:01:29;98.00;;;63.75;;
21505;SDS011;10914;48.886;9.394;2024-01-11T09:03:54;93.93;;;64.55;;
21505;SDS011;10914;48.886;9.394;2024-01-11T09:06:19;79.03;;;60.85;;
21505;SDS011;10914;48.886;9.394;2024-01-11T09:08:45;86.43;;;62.03;;
21505;SDS011;10914;48.886;9.394;2024-01-11T09:11:10;86.85;;;62.22;;
21505;SDS011;10914;48.886;9.394;2024-01-11T09:13:35;85.55;;;64.07;;
21505;SDS011;10914;48.886;9.394;2024-01-11T09:16:01;88.07;;;68.82;;
21505;SDS011;10914;48.886;9.394;2024-01-11T09:18:26;92.18;;;70.48;;
21505;SDS011;10914;48.886;9.394;2024-01-11T09:20:51;101.76;;;78.16;;
21505;SDS011;10914;48.886;9.394;2024-01-11T09:23:16;99.13;;;85.38;;
21505;SDS011;10914;48.886;9.394;2024-01-11T09:25:42;101.78;;;90.78;;
21505;SDS011;10914;48.886;9.394;2024-01-11T09:28:08;102.95;;;92.00;;
21505;SDS011;10914;48.886;9.394;2024-01-11T09:30:33;95.93;;;86.05;;
21505;SDS011;10914;48.886;9.394;2024-01-11T09:32:58;96.28;;;82.90;;
21505;SDS011;10914;48.886;9.394;2024-01-11T09:35:24;95.10;;;84.90;;
21505;SDS011;10914;48.886;9.394;2024-01-11T09:37:49;101.97;;;88.93;;
21505;SDS011;10914;48.886;9.394;2024-01-11T09:40:14;96.03;;;85.07;;
21505;SDS011;10914;48.886;9.394;2024-01-11T09:42:39;92.25;;;75.75;;
21505;SDS011;10914;48.886;9.394;2024-01-11T09:45:09;87.75;;;67.18;;
21505;SDS011;10914;48.886;9.394;2024-01-11T09:47:35;82.13;;;65.50;;
21505;SDS011;10914;48.886;9.394;2024-01-11T09:50:02;90.03;;;66.03;;
21505;SDS011;10914;48.886;9.394;2024-01-11T09:52:27;86.15;;;63.40;;
21505;SDS011;10914;48.886;9.394;2024-01-11T09:54:53;88.80;;;64.70;;
21505;SDS011;10914;48.886;9.394;2024-01-11T09:57:20;80.57;;;61.90;;
21505;SDS011;10914;48.886;9.394;2024-01-11T09:59:48;85.57;;;63.90;;
21505;SDS011;10914;48.886;9.394;2024-01-11T10:02:13;81.30;;;62.75;;
21505;SDS011;10914;48.886;9.394;2024-01-11T10:04:40;77.68;;;64.40;;
21505;SDS011;10914;48.886;9.394;2024-01-11T10:07:06;88.32;;;68.68;;
21505;SDS011;10914;48.886;9.394;2024-01-11T10:09:31;76.47;;;66.40;;
21505;SDS011;10914;48.886;9.394;2024-01-11T10:11:56;80.50;;;67.45;;
21505;SDS011;10914;48.886;9.394;2024-01-11T10:14:21;80.07;;;65.70;;
21505;SDS011;10914;48.886;9.394;2024-01-11T10:16:47;83.05;;;67.95;;
21505;SDS011;10914;48.886;9.394;2024-01-11T10:19:13;85.85;;;66.10;;
21505;SDS011;10914;48.886;9.394;2024-01-11T10:21:40;79.82;;;60.88;;
21505;SDS011;10914;48.886;9.394;2024-01-11T10:24:05;71.50;;;59.13;;
21505;SDS011;10914;48.886;9.394;2024-01-11T10:26:31;75.65;;;59.72;;
21505;SDS011;10914;48.886;9.394;2024-01-11T10:28:58;73.70;;;58.47;;
21505;SDS011;10914;48.886;9.394;2024-01-11T10:31:24;75.20;;;65.75;;
21505;SDS011;10914;48.886;9.394;2024-01-11T10:33:52;72.00;;;61.55;;
21505;SDS011;10914;48.886;9.394;2024-01-11T10:36:17;62.90;;;55.05;;
21505;SDS011;10914;48.886;9.394;2024-01-11T10:38:43;65.13;;;54.65;;
21505;SDS011;10914;48.886;9.394;2024-01-11T10:41:09;66.00;;;55.42;;
21505;SDS011;10914;48.886;9.394;2024-01-11T10:43:36;62.33;;;55.20;;
21505;SDS011;10914;48.886;9.394;2024-01-11T10:46:02;71.30;;;63.78;;
21505;SDS011;10914;48.886;9.394;2024-01-11T10:48:30;67.53;;;60.25;;
21505;SDS011;10914;48.886;9.394;2024-01-11T10:50:58;66.75;;;57.25;;
21505;SDS011;10914;48.886;9.394;2024-01-11T10:53:38;66.93;;;55.90;;
21505;SDS011;10914;48.886;9.394;2024-01-11T10:56:05;66.55;;;56.20;;
21505;SDS011;10914;48.886;9.394;2024-01-11T10:58:32;69.45;;;55.72;;
21505;SDS011;10914;48.886;9.394;2024-01-11T11:00:58;60.40;;;52.97;;
21505;SDS011;10914;48.886;9.394;2024-01-11T11:03:24;64.47;;;55.60;;
21505;SDS011;10914;48.886;9.394;2024-01-11T11:05:51;62.65;;;54.25;;
21505;SDS011;10914;48.886;9.394;2024-01-11T11:08:17;61.67;;;54.55;;
21505;SDS011;10914;48.886;9.394;2024-01-11T11:10:43;60.90;;;53.10;;
21505;SDS011;10914;48.886;9.394;2024-01-11T11:13:10;61.72;;;54.83;;
21505;SDS011;10914;48.886;9.394;2024-01-11T11:15:36;61.65;;;54.45;;
21505;SDS011;10914;48.886;9.394;2024-01-11T11:18:03;61.20;;;53.47;;
21505;SDS011;10914;48.886;9.394;2024-01-11T11:20:30;62.33;;;54.70;;
21505;SDS011;10914;48.886;9.394;2024-01-11T11:23:03;62.10;;;52.90;;
21505;SDS011;10914;48.886;9.394;2024-01-11T11:25:29;60.17;;;53.42;;
21505;SDS011;10914;48.886;9.394;2024-01-11T11:27:54;62.35;;;53.83;;
21505;SDS011;10914;48.886;9.394;2024-01-11T11:30:20;63.10;;;55.38;;
21505;SDS011;10914;48.886;9.394;2024-01-11T11:32:45;64.43;;;57.20;;
21505;SDS011;10914;48.886;9.394;2024-01-11T11:35:11;63.58;;;56.50;;
21505;SDS011;10914;48.886;9.394;2024-01-11T11:37:36;64.50;;;57.63;;
21505;SDS011;10914;48.886;9.394;2024-01-11T11:40:02;66.10;;;55.88;;
21505;SDS011;10914;48.886;9.394;2024-01-11T11:42:30;60.97;;;54.42;;
21505;SDS011;10914;48.886;9.394;2024-01-11T11:44:55;60.20;;;53.58;;
21505;SDS011;10914;48.886;9.394;2024-01-11T11:47:22;62.08;;;54.97;;
21505;SDS011;10914;48.886;9.394;2024-01-11T11:49:58;65.05;;;55.67;;
21505;SDS011;10914;48.886;9.394;2024-01-11T11:52:24;63.70;;;56.17;;
21505;SDS011;10914;48.886;9.394;2024-01-11T11:54:50;62.28;;;55.17;;
21505;SDS011;10914;48.886;9.394;2024-01-11T11:57:16;68.75;;;58.35;;
21505;SDS011;10914;48.886;9.394;2024-01-11T11:59:41;63.13;;;56.22;;
21505;SDS011;10914;48.886;9.394;2024-01-11T12:02:07;62.75;;;55.97;;
21505;SDS011;10914;48.886;9.394;2024-01-11T12:04:38;64.68;;;57.63;;
21505;SDS011;10914;48.886;9.394;2024-01-11T12:07:03;64.70;;;57.60;;
21505;SDS011;10914;48.886;9.394;2024-01-11T12:09:29;64.03;;;57.03;;
21505;SDS011;10914;48.886;9.394;2024-01-11T12:11:54;65.40;;;56.53;;
21505;SDS011;10914;48.886;9.394;2024-01-11T12:14:19;59.97;;;53.42;;
21505;SDS011;10914;48.886;9.394;2024-01-11T12:16:45;65.15;;;56.35;;
21505;SDS011;10914;48.886;9.394;2024-01-11T12:19:10;63.10;;;56.20;;
21505;SDS011;10914;48.886;9.394;2024-01-11T12:21:35;67.93;;;57.95;;
21505;SDS011;10914;48.886;9.394;2024-01-11T12:24:00;60.87;;;54.27;;
21505;SDS011;10914;48.886;9.394;2024-01-11T12:26:25;65.72;;;57.80;;
21505;SDS011;10914;48.886;9.394;2024-01-11T12:28:51;64.80;;;57.10;;
21505;SDS011;10914;48.886;9.394;2024-01-11T12:31:16;66.50;;;59.05;;
21505;SDS011;10914;48.886;9.394;2024-01-11T12:33:42;65.47;;;58.38;;
21505;SDS011;10914;48.886;9.394;2024-01-11T12:36:08;65.20;;;57.90;;
21505;SDS011;10914;48.886;9.394;2024-01-11T12:38:34;64.30;;;57.28;;
21505;SDS011;10914;48.886;9.394;2024-01-11T12:40:59;63.78;;;56.80;;
21505;SDS011;10914;48.886;9.394;2024-01-11T12:43:24;63.38;;;56.63;;
21505;SDS011;10914;48.886;9.394;2024-01-11T12:45:49;61.25;;;53.83;;
21505;SDS011;10914;48.886;9.394;2024-01-11T12:48:14;63.50;;;55.50;;
21505;SDS011;10914;48.886;9.394;2024-01-11T12:50:41;64.55;;;56.35;;
21505;SDS011;10914;48.886;9.394;2024-01-11T12:53:07;61.78;;;55.08;;
21505;SDS011;10914;48.886;9.394;2024-01-11T12:55:33;69.45;;;59.42;;
21505;SDS011;10914;48.886;9.394;2024-01-11T12:58:07;67.85;;;58.80;;
21505;SDS011;10914;48.886;9.394;2024-01-11T13:00:34;72.28;;;61.60;;
21505;SDS011;10914;48.886;9.394;2024-01-11T13:02:59;75.88;;;65.38;;
21505;SDS011;10914;48.886;9.394;2024-01-11T13:05:25;72.50;;;63.40;;
21505;SDS011;10914;48.886;9.394;2024-01-11T13:07:50;75.55;;;59.53;;
21505;SDS011;10914;48.886;9.394;2024-01-11T13:10:16;63.30;;;55.88;;
21505;SDS011;10914;48.886;9.394;2024-01-11T13:12:42;69.43;;;57.67;;
21505;SDS011;10914;48.886;9.394;2024-01-11T13:15:07;67.23;;;56.40;;
21505;SDS011;10914;48.886;9.394;2024-01-11T13:17:32;70.00;;;57.60;;
21505;SDS011;10914;48.886;9.394;2024-01-11T13:19:57;70.28;;;57.67;;
21505;SDS011;10914;48.886;9.394;2024-01-11T13:22:24;77.20;;;59.38;;
21505;SDS011;10914;48.886;9.394;2024-01-11T13:24:49;70.57;;;59.00;;
21505;SDS011;10914;48.886;9.394;2024-01-11T13:27:15;68.57;;;58.65;;
21505;SDS011;10914;48.886;9.394;2024-01-11T13:29:40;75.82;;;60.95;;
21505;SDS011;10914;48.886;9.394;2024-01-11T13:32:05;73.87;;;60.27;;
21505;SDS011;10914;48.886;9.394;2024-01-11T13:34:30;68.32;;;59.17;;
21505;SDS011;10914;48.886;9.394;2024-01-11T13:36:55;74.83;;;58.73;;
21505;SDS011;10914;48.886;9.394;2024-01-11T13:39:21;66.95;;;58.17;;
21505;SDS011;10914;48.886;9.394;2024-01-11T13:41:48;71.47;;;58.83;;
21505;SDS011;10914;48.886;9.394;2024-01-11T13:44:13;77.83;;;59.77;;
21505;SDS011;10914;48.886;9.394;2024-01-11T13:46:39;70.53;;;58.05;;
21505;SDS011;10914;48.886;9.394;2024-01-11T13:49:04;73.28;;;59.33;;
21505;SDS011;10914;48.886;9.394;2024-01-11T13:51:29;77.40;;;60.35;;
21505;SDS011;10914;48.886;9.394;2024-01-11T13:53:57;70.45;;;58.17;;
21505;SDS011;10914;48.886;9.394;2024-01-11T13:56:22;72.20;;;57.70;;
21505;SDS011;10914;48.886;9.394;2024-01-11T13:58:48;74.28;;;61.63;;
21505;SDS011;10914;48.886;9.394;2024-01-11T14:01:13;69.93;;;56.95;;
21505;SDS011;10914;48.886;9.394;2024-01-11T14:03:38;70.85;;;56.85;;
21505;SDS011;10914;48.886;9.394;2024-01-11T14:06:04;72.63;;;57.45;;
21505;SDS011;10914;48.886;9.394;2024-01-11T14:08:29;68.18;;;59.15;;
21505;SDS011;10914;48.886;9.394;2024-01-11T14:10:54;74.50;;;58.13;;